Time;durP1;ratioP1;P1;durP2;ratioP2;P2;SDS_P1;SDS_P2;PMS_P1;PMS_P2;Temp;Humidity;BMP_temperature;BMP_pressure;BME280_temperature;BME280_humidity;BME280_pressure;Samples;Min_cycle;Max_cycle;Signal;HPM_P1;HPM_P2
2021/07/28 00:00:00;;;;;;;35.20;12.85;;;;;;;;;;4974034;28;20035;-71
2021/07/28 00:02:26;;;;;;;35.72;13.23;;;;;;;;;;4973767;28;20034;-71
2021/07/28 00:04:51;;;;;;;37.00;13.02;;;;;;;;;;4974002;28;20027;-71
2021/07/28 00:07:17;;;;;;;32.50;12.95;;;;;;;;;;4974078;28;20027;-71
2021/07/28 00:09:42;;;;;;;25.10;12.98;;;;;;;;;;4973095;28;20430;-71
2021/07/28 00:12:08;;;;;;;44.97;13.02;;;;;;;;;;4973729;28;20459;-71
2021/07/28 00:14:34;;;;;;;47.75;13.93;;;;;;;;;;4973896;28;20134;-71
2021/07/28 00:17:00;;;;;;;48.47;12.75;;;;;;;;;;4974017;28;20038;-71
2021/07/28 00:19:34;;;;;;;34.42;13.05;;;;;;;;;;4972604;28;20026;-71
2021/07/28 00:24:55;;;;;;;42.78;12.98;;;;;;;;;;4951946;29;20039;-71
2021/07/28 00:27:20;;;;;;;55.50;13.27;;;;;;;;;;4951586;29;20527;-71
2021/07/28 00:29:45;;;;;;;65.07;13.23;;;;;;;;;;4996497;28;20078;-70
2021/07/28 00:32:11;;;;;;;42.42;12.32;;;;;;;;;;4971894;28;20022;-70
2021/07/28 00:34:37;;;;;;;51.08;13.23;;;;;;;;;;4973018;28;20057;-70
2021/07/28 00:37:02;;;;;;;47.17;12.20;;;;;;;;;;4973683;28;20033;-70
2021/07/28 00:39:28;;;;;;;52.95;12.88;;;;;;;;;;4973052;28;20117;-71
2021/07/28 00:41:53;;;;;;;50.85;12.95;;;;;;;;;;4976576;28;20027;-71
2021/07/28 00:44:19;;;;;;;68.40;13.50;;;;;;;;;;4973473;28;20029;-70
2021/07/28 00:46:44;;;;;;;57.22;12.82;;;;;;;;;;4973549;28;20058;-70
2021/07/28 00:49:10;;;;;;;58.83;13.43;;;;;;;;;;4973559;28;20046;-70
2021/07/28 00:51:36;;;;;;;55.92;14.90;;;;;;;;;;4977830;28;20706;-70
2021/07/28 00:54:01;;;;;;;49.35;14.18;;;;;;;;;;4992971;28;20164;-70
2021/07/28 00:56:27;;;;;;;25.85;12.52;;;;;;;;;;4985252;28;20113;-70
2021/07/28 00:58:56;;;;;;;27.15;11.00;;;;;;;;;;4973396;28;20118;-70
2021/07/28 01:01:21;;;;;;;44.95;11.82;;;;;;;;;;4971764;28;20425;-70
2021/07/28 01:03:47;;;;;;;58.83;12.65;;;;;;;;;;4973156;28;20030;-70
2021/07/28 01:06:12;;;;;;;39.80;11.75;;;;;;;;;;4971737;28;20022;-70
2021/07/28 01:08:38;;;;;;;45.85;12.32;;;;;;;;;;4973510;28;20031;-70
2021/07/28 01:11:06;;;;;;;37.80;11.93;;;;;;;;;;4972977;28;20077;-71
2021/07/28 01:13:34;;;;;;;45.60;12.48;;;;;;;;;;4972885;28;20030;-70
2021/07/28 01:16:11;;;;;;;44.90;13.60;;;;;;;;;;4972988;28;20102;-70
2021/07/28 01:18:38;;;;;;;38.40;11.75;;;;;;;;;;4972987;28;20031;-71
2021/07/28 01:21:06;;;;;;;39.10;11.95;;;;;;;;;;4971303;28;20117;-70
2021/07/28 01:23:32;;;;;;;50.80;12.52;;;;;;;;;;4973029;28;20122;-71
2021/07/28 01:26:03;;;;;;;32.28;12.18;;;;;;;;;;4973107;28;20107;-71
2021/07/28 01:28:30;;;;;;;45.75;12.50;;;;;;;;;;4972744;28;20038;-71
2021/07/28 01:31:10;;;;;;;37.90;12.80;;;;;;;;;;4975701;28;20034;-71
2021/07/28 01:33:44;;;;;;;43.53;12.23;;;;;;;;;;4961766;28;20057;-71
2021/07/28 01:36:13;;;;;;;81.68;13.13;;;;;;;;;;4976643;28;20079;-70
2021/07/28 01:38:39;;;;;;;63.28;12.57;;;;;;;;;;4976565;28;20035;-71
2021/07/28 01:41:06;;;;;;;49.47;12.82;;;;;;;;;;4976657;28;20031;-71
2021/07/28 01:43:32;;;;;;;38.47;12.73;;;;;;;;;;4986322;28;20455;-71
2021/07/28 01:45:59;;;;;;;56.22;12.15;;;;;;;;;;4976663;28;20101;-71
2021/07/28 01:48:25;;;;;;;35.10;12.18;;;;;;;;;;4976644;28;20113;-71
2021/07/28 01:50:51;;;;;;;16.88;12.50;;;;;;;;;;4976316;28;20430;-71
2021/07/28 01:53:17;;;;;;;16.75;12.75;;;;;;;;;;4980972;28;20023;-71
2021/07/28 01:55:44;;;;;;;38.08;11.75;;;;;;;;;;4976629;28;20057;-71
2021/07/28 01:58:11;;;;;;;49.30;12.77;;;;;;;;;;4976091;28;20022;-71
2021/07/28 02:00:37;;;;;;;50.13;12.55;;;;;;;;;;4975822;28;20023;-72
2021/07/28 02:03:03;;;;;;;53.83;12.60;;;;;;;;;;4976276;28;20038;-71
2021/07/28 02:05:33;;;;;;;42.92;12.63;;;;;;;;;;4976333;28;20548;-71
2021/07/28 02:08:06;;;;;;;94.32;14.70;;;;;;;;;;4976652;28;20027;-71
2021/07/28 02:10:36;;;;;;;113.15;14.73;;;;;;;;;;4975394;28;20030;-71
2021/07/28 02:13:02;;;;;;;116.82;15.05;;;;;;;;;;4976061;28;20045;-72
2021/07/28 02:15:28;;;;;;;108.82;14.25;;;;;;;;;;4975193;28;20023;-71
2021/07/28 02:17:55;;;;;;;103.65;14.93;;;;;;;;;;4976263;28;20023;-71
2021/07/28 02:20:23;;;;;;;95.90;14.73;;;;;;;;;;4975545;28;20455;-71
2021/07/28 02:22:49;;;;;;;78.82;12.98;;;;;;;;;;4975804;28;20037;-72
2021/07/28 02:25:15;;;;;;;61.25;13.23;;;;;;;;;;4975767;28;20352;-71
2021/07/28 02:27:43;;;;;;;77.55;12.75;;;;;;;;;;4975905;28;20031;-71
2021/07/28 02:30:11;;;;;;;85.38;13.35;;;;;;;;;;4975330;28;20030;-71
2021/07/28 02:32:38;;;;;;;41.88;12.82;;;;;;;;;;4975643;28;20027;-71
2021/07/28 02:35:06;;;;;;;30.17;13.13;;;;;;;;;;4965306;28;20122;-72
2021/07/28 02:37:32;;;;;;;34.67;13.48;;;;;;;;;;4956730;28;20046;-72
2021/07/28 02:39:58;;;;;;;44.33;12.80;;;;;;;;;;4956171;28;20472;-71
2021/07/28 02:42:24;;;;;;;48.85;13.52;;;;;;;;;;4977728;28;20030;-71
2021/07/28 02:44:49;;;;;;;47.95;12.73;;;;;;;;;;4975464;28;20037;-71
2021/07/28 02:47:15;;;;;;;37.38;12.60;;;;;;;;;;4975013;28;20046;-71
2021/07/28 02:49:41;;;;;;;73.50;13.35;;;;;;;;;;4975342;28;20027;-71
2021/07/28 02:52:07;;;;;;;53.17;12.77;;;;;;;;;;4975467;28;20109;-71
2021/07/28 02:54:32;;;;;;;43.05;12.82;;;;;;;;;;4975681;28;20486;-71
2021/07/28 02:56:58;;;;;;;48.17;13.07;;;;;;;;;;4975785;28;20061;-71
2021/07/28 02:59:24;;;;;;;44.97;12.98;;;;;;;;;;4974892;28;20030;-71
2021/07/28 03:01:52;;;;;;;34.55;12.48;;;;;;;;;;4974517;28;20027;-71
2021/07/28 03:04:18;;;;;;;13.48;12.07;;;;;;;;;;4973309;28;20058;-71
2021/07/28 03:06:43;;;;;;;13.63;12.23;;;;;;;;;;4973045;28;20073;-71
2021/07/28 03:09:08;;;;;;;19.33;12.02;;;;;;;;;;4975254;28;20561;-71
2021/07/28 03:11:34;;;;;;;29.63;11.93;;;;;;;;;;4974591;28;20030;-71
2021/07/28 03:14:05;;;;;;;19.25;12.35;;;;;;;;;;4975332;28;20085;-71
2021/07/28 03:16:31;;;;;;;15.93;11.98;;;;;;;;;;4972853;28;20034;-71
2021/07/28 03:18:59;;;;;;;16.08;12.40;;;;;;;;;;4974840;28;20385;-71
2021/07/28 03:21:25;;;;;;;24.17;12.02;;;;;;;;;;4971789;28;20109;-71
2021/07/28 03:23:51;;;;;;;14.40;12.25;;;;;;;;;;4961175;28;20034;-71
2021/07/28 03:26:16;;;;;;;13.50;12.30;;;;;;;;;;4966822;28;20030;-71
2021/07/28 03:28:42;;;;;;;12.68;11.38;;;;;;;;;;4962626;28;20101;-71
2021/07/28 03:31:08;;;;;;;13.05;11.82;;;;;;;;;;4970911;28;20053;-71
2021/07/28 03:33:35;;;;;;;13.15;11.90;;;;;;;;;;4974707;28;20458;-71
2021/07/28 03:36:00;;;;;;;12.88;11.57;;;;;;;;;;4974296;28;20092;-71
2021/07/28 03:38:27;;;;;;;12.32;11.15;;;;;;;;;;4974278;28;20105;-71
2021/07/28 03:40:52;;;;;;;12.95;11.65;;;;;;;;;;4974203;28;20026;-71
2021/07/28 03:43:18;;;;;;;14.00;11.57;;;;;;;;;;4991768;28;20025;-71
2021/07/28 03:45:44;;;;;;;13.43;12.13;;;;;;;;;;4974221;28;20022;-71
2021/07/28 03:48:10;;;;;;;13.13;11.93;;;;;;;;;;4974501;28;20078;-72
2021/07/28 03:50:36;;;;;;;13.20;11.95;;;;;;;;;;4973329;28;20023;-71
2021/07/28 03:53:03;;;;;;;18.13;13.15;;;;;;;;;;4974370;28;20564;-71
2021/07/28 03:55:29;;;;;;;24.77;13.85;;;;;;;;;;4974008;28;20102;-71
2021/07/28 03:57:55;;;;;;;19.50;12.93;;;;;;;;;;4972687;28;20118;-71
2021/07/28 04:00:20;;;;;;;26.67;14.15;;;;;;;;;;4973556;28;20039;-71
2021/07/28 04:02:47;;;;;;;17.05;12.80;;;;;;;;;;4974009;28;20038;-71
2021/07/28 04:05:13;;;;;;;17.48;13.65;;;;;;;;;;4974337;28;20027;-71
2021/07/28 04:07:38;;;;;;;20.13;13.88;;;;;;;;;;4974215;28;20459;-71
2021/07/28 04:10:04;;;;;;;34.75;14.90;;;;;;;;;;4973758;28;20474;-71
2021/07/28 04:12:30;;;;;;;61.53;15.48;;;;;;;;;;4972150;28;20121;-71
2021/07/28 04:14:55;;;;;;;53.97;15.43;;;;;;;;;;4973534;28;20415;-71
2021/07/28 04:17:20;;;;;;;51.17;16.35;;;;;;;;;;4973476;28;20034;-71
2021/07/28 04:19:49;;;;;;;34.83;16.08;;;;;;;;;;4973667;28;20539;-71
2021/07/28 04:22:18;;;;;;;32.22;15.85;;;;;;;;;;4974114;28;20031;-72
2021/07/28 04:24:45;;;;;;;30.10;16.38;;;;;;;;;;4973744;28;20626;-71
2021/07/28 04:27:11;;;;;;;43.22;17.77;;;;;;;;;;4973874;28;20035;-72
2021/07/28 04:29:36;;;;;;;66.63;17.23;;;;;;;;;;4973514;28;20497;-72
2021/07/28 04:32:02;;;;;;;58.75;17.83;;;;;;;;;;4973279;28;20077;-71
2021/07/28 04:34:28;;;;;;;91.25;17.83;;;;;;;;;;4973542;28;20050;-71
2021/07/28 04:36:54;;;;;;;130.40;18.85;;;;;;;;;;4972275;28;20467;-71
2021/07/28 04:39:19;;;;;;;57.85;17.73;;;;;;;;;;4973515;28;20523;-72
2021/07/28 04:41:45;;;;;;;66.50;18.75;;;;;;;;;;4974905;28;20026;-71
2021/07/28 04:44:11;;;;;;;69.70;18.48;;;;;;;;;;4973419;28;20026;-72
2021/07/28 04:46:36;;;;;;;75.88;19.25;;;;;;;;;;4973363;28;20470;-72
2021/07/28 04:49:02;;;;;;;91.35;19.27;;;;;;;;;;4973079;28;20027;-71
2021/07/28 04:51:27;;;;;;;51.60;19.00;;;;;;;;;;4972614;28;20031;-72
2021/07/28 04:53:53;;;;;;;53.28;18.55;;;;;;;;;;4972938;28;20085;-71
2021/07/28 04:56:19;;;;;;;59.15;19.25;;;;;;;;;;4973495;28;20058;-71
2021/07/28 04:58:44;;;;;;;34.92;19.38;;;;;;;;;;4973088;28;20022;-71
2021/07/28 05:01:11;;;;;;;31.00;19.58;;;;;;;;;;4973008;28;20030;-71
2021/07/28 05:03:37;;;;;;;33.75;20.83;;;;;;;;;;4973227;28;20031;-70
2021/07/28 05:06:04;;;;;;;23.80;20.20;;;;;;;;;;4973082;28;20078;-71
2021/07/28 05:08:29;;;;;;;25.38;22.58;;;;;;;;;;4973269;28;20510;-71
2021/07/28 05:10:54;;;;;;;26.40;23.65;;;;;;;;;;4973223;28;20023;-70
2021/07/28 05:13:20;;;;;;;27.70;24.10;;;;;;;;;;4972633;28;20120;-70
2021/07/28 05:15:50;;;;;;;29.42;26.23;;;;;;;;;;4972783;28;20027;-70
2021/07/28 05:18:16;;;;;;;33.75;29.02;;;;;;;;;;4973269;28;20138;-71
2021/07/28 05:20:41;;;;;;;36.47;31.00;;;;;;;;;;4973279;28;20035;-71
2021/07/28 05:23:07;;;;;;;34.83;30.13;;;;;;;;;;4972833;28;20494;-71
2021/07/28 05:25:32;;;;;;;41.50;34.13;;;;;;;;;;4972834;28;20370;-71
2021/07/28 05:27:58;;;;;;;37.63;32.17;;;;;;;;;;4973151;28;20031;-71
2021/07/28 05:30:23;;;;;;;49.40;36.08;;;;;;;;;;4973052;28;20077;-71
2021/07/28 05:32:50;;;;;;;40.90;34.17;;;;;;;;;;4973217;28;20034;-71
2021/07/28 05:35:16;;;;;;;41.13;34.30;;;;;;;;;;4972437;28;20042;-71
2021/07/28 05:37:41;;;;;;;42.53;37.10;;;;;;;;;;4972241;28;20039;-71
2021/07/28 05:40:07;;;;;;;43.88;35.97;;;;;;;;;;4972521;28;20352;-71
2021/07/28 05:42:33;;;;;;;44.85;37.13;;;;;;;;;;4986237;28;20026;-71
2021/07/28 05:45:00;;;;;;;50.22;40.08;;;;;;;;;;4990140;28;20105;-71
2021/07/28 05:47:26;;;;;;;53.65;39.47;;;;;;;;;;4969056;28;20027;-71
2021/07/28 05:49:51;;;;;;;48.05;38.90;;;;;;;;;;4972452;28;20089;-70
2021/07/28 05:52:17;;;;;;;39.53;35.13;;;;;;;;;;4983473;28;20111;-70
2021/07/28 05:54:42;;;;;;;39.53;34.55;;;;;;;;;;4974309;28;20105;-70
2021/07/28 05:57:08;;;;;;;34.70;31.00;;;;;;;;;;4971446;28;20467;-70
2021/07/28 05:59:34;;;;;;;30.00;26.85;;;;;;;;;;4965036;28;20027;-70
2021/07/28 06:01:59;;;;;;;32.38;28.33;;;;;;;;;;4972509;28;20026;-70
2021/07/28 06:04:25;;;;;;;33.38;28.17;;;;;;;;;;4972581;28;20157;-71
2021/07/28 06:06:50;;;;;;;28.33;25.10;;;;;;;;;;4972832;28;20042;-70
2021/07/28 06:09:16;;;;;;;30.52;27.30;;;;;;;;;;4972575;28;20133;-70
2021/07/28 06:11:41;;;;;;;28.52;23.90;;;;;;;;;;4972737;28;20031;-71
2021/07/28 06:14:07;;;;;;;29.60;24.92;;;;;;;;;;4972615;28;20037;-71
2021/07/28 06:16:33;;;;;;;27.55;24.88;;;;;;;;;;4973139;28;20026;-71
2021/07/28 06:19:01;;;;;;;29.00;25.70;;;;;;;;;;4965736;28;20341;-71
2021/07/28 06:21:26;;;;;;;27.60;24.80;;;;;;;;;;4976218;28;20023;-71
2021/07/28 06:23:52;;;;;;;24.00;21.50;;;;;;;;;;4974252;28;20558;-71
2021/07/28 06:26:17;;;;;;;26.65;22.48;;;;;;;;;;4975999;28;20081;-71
2021/07/28 06:28:43;;;;;;;19.33;17.45;;;;;;;;;;4975408;28;20041;-71
2021/07/28 06:31:09;;;;;;;22.70;17.90;;;;;;;;;;4975679;28;20481;-71
2021/07/28 06:33:34;;;;;;;18.67;16.70;;;;;;;;;;4975668;28;20451;-71
2021/07/28 06:35:59;;;;;;;20.25;17.77;;;;;;;;;;4975361;28;20146;-71
2021/07/28 06:38:25;;;;;;;19.75;17.75;;;;;;;;;;4975768;28;20062;-71
2021/07/28 06:40:51;;;;;;;18.75;16.85;;;;;;;;;;4975658;28;20026;-71
2021/07/28 06:43:16;;;;;;;19.27;17.38;;;;;;;;;;4981863;28;20110;-71
2021/07/28 06:45:42;;;;;;;17.90;15.98;;;;;;;;;;4975329;28;20030;-71
2021/07/28 06:48:08;;;;;;;16.42;14.10;;;;;;;;;;4975663;28;20034;-71
2021/07/28 06:50:34;;;;;;;14.15;12.80;;;;;;;;;;4975647;28;20363;-71
2021/07/28 06:52:59;;;;;;;13.48;12.20;;;;;;;;;;4992071;28;20022;-71
2021/07/28 06:55:25;;;;;;;16.20;14.07;;;;;;;;;;4990019;28;20026;-71
2021/07/28 06:57:50;;;;;;;15.23;13.15;;;;;;;;;;4975777;28;20109;-71
2021/07/28 07:00:18;;;;;;;16.38;13.00;;;;;;;;;;4975649;28;20114;-72
2021/07/28 07:02:44;;;;;;;15.18;12.40;;;;;;;;;;4975321;28;20414;-72
2021/07/28 07:05:11;;;;;;;11.63;10.43;;;;;;;;;;4975828;28;20085;-71
2021/07/28 07:07:40;;;;;;;14.20;12.57;;;;;;;;;;4975499;28;20455;-71
2021/07/28 07:10:08;;;;;;;13.27;11.93;;;;;;;;;;4974519;28;20037;-72
2021/07/28 07:12:39;;;;;;;15.27;11.38;;;;;;;;;;4974972;28;20034;-71
2021/07/28 07:15:06;;;;;;;13.73;11.00;;;;;;;;;;4975692;28;20049;-71
2021/07/28 07:17:31;;;;;;;12.93;10.45;;;;;;;;;;4962161;28;20054;-72
2021/07/28 07:19:57;;;;;;;10.85;9.75;;;;;;;;;;4961797;28;20047;-72
2021/07/28 07:22:23;;;;;;;11.98;10.20;;;;;;;;;;4964011;28;20031;-71
2021/07/28 07:24:49;;;;;;;12.45;10.57;;;;;;;;;;4962107;28;20414;-72
2021/07/28 07:27:15;;;;;;;10.80;9.30;;;;;;;;;;4967325;28;20027;-72
2021/07/28 07:29:40;;;;;;;11.27;10.02;;;;;;;;;;4962375;28;20027;-72
2021/07/28 07:32:06;;;;;;;11.13;10.02;;;;;;;;;;4971743;28;20119;-72
2021/07/28 07:34:37;;;;;;;12.43;10.93;;;;;;;;;;4972721;28;20577;-72
2021/07/28 07:37:03;;;;;;;13.32;10.80;;;;;;;;;;4973619;28;20030;-71
2021/07/28 07:39:28;;;;;;;12.40;11.18;;;;;;;;;;4969516;28;20037;-71
2021/07/28 07:41:54;;;;;;;13.85;12.45;;;;;;;;;;4968478;28;20073;-72
2021/07/28 07:44:19;;;;;;;15.13;10.50;;;;;;;;;;4968131;28;20030;-72
2021/07/28 07:46:46;;;;;;;12.65;10.75;;;;;;;;;;4971740;28;20035;-71
2021/07/28 07:49:11;;;;;;;12.43;11.13;;;;;;;;;;4968477;28;20030;-72
2021/07/28 07:51:37;;;;;;;12.25;10.98;;;;;;;;;;4970993;28;20030;-72
2021/07/28 07:54:02;;;;;;;12.48;11.18;;;;;;;;;;4967410;28;20023;-71
2021/07/28 07:56:28;;;;;;;12.15;11.00;;;;;;;;;;4970753;28;20100;-72
2021/07/28 07:58:54;;;;;;;13.18;11.88;;;;;;;;;;4973455;28;20435;-72
2021/07/28 08:01:19;;;;;;;13.75;11.50;;;;;;;;;;4973421;28;20034;-72
2021/07/28 08:03:45;;;;;;;13.05;11.68;;;;;;;;;;4972746;28;20455;-72
2021/07/28 08:06:11;;;;;;;13.73;11.98;;;;;;;;;;4972893;28;20125;-72
2021/07/28 08:08:38;;;;;;;12.45;11.27;;;;;;;;;;4972553;28;20077;-72
2021/07/28 08:11:11;;;;;;;13.52;11.82;;;;;;;;;;4973259;28;20030;-72
2021/07/28 08:13:37;;;;;;;12.52;11.27;;;;;;;;;;4966494;28;20026;-72
2021/07/28 08:16:18;;;;;;;13.43;12.13;;;;;;;;;;4963369;28;20113;-72
2021/07/28 08:18:44;;;;;;;12.85;11.65;;;;;;;;;;4958304;28;20058;-72
2021/07/28 08:21:12;;;;;;;14.13;12.68;;;;;;;;;;4961857;28;20039;-72
2021/07/28 08:23:39;;;;;;;15.88;13.00;;;;;;;;;;4962748;28;20038;-72
2021/07/28 08:26:05;;;;;;;14.70;13.15;;;;;;;;;;4966735;28;20034;-72
2021/07/28 08:28:30;;;;;;;15.52;13.93;;;;;;;;;;4964448;28;20078;-72
2021/07/28 08:30:56;;;;;;;15.45;13.85;;;;;;;;;;4957112;28;20110;-72
2021/07/28 08:33:24;;;;;;;15.77;14.18;;;;;;;;;;4970427;28;20034;-72
2021/07/28 08:35:49;;;;;;;15.15;13.63;;;;;;;;;;4971823;28;20275;-72
2021/07/28 08:38:15;;;;;;;15.13;13.65;;;;;;;;;;4971775;28;20049;-72
2021/07/28 08:40:41;;;;;;;15.75;14.07;;;;;;;;;;4970910;28;20404;-72
2021/07/28 08:43:07;;;;;;;14.95;13.45;;;;;;;;;;4990487;28;20045;-72
2021/07/28 08:45:34;;;;;;;14.73;13.10;;;;;;;;;;4985743;28;20097;-72
2021/07/28 08:47:59;;;;;;;12.25;11.00;;;;;;;;;;4972564;28;20019;-72
2021/07/28 08:50:27;;;;;;;12.48;11.18;;;;;;;;;;4972400;28;20030;-72
2021/07/28 08:52:52;;;;;;;14.15;12.75;;;;;;;;;;4972380;28;20425;-73
2021/07/28 08:55:22;;;;;;;13.27;11.57;;;;;;;;;;4971181;28;20157;-72
2021/07/28 08:57:48;;;;;;;11.82;10.18;;;;;;;;;;4971052;28;20076;-72
2021/07/28 09:00:13;;;;;;;11.93;10.77;;;;;;;;;;4971697;28;20113;-72
2021/07/28 09:02:39;;;;;;;10.93;9.90;;;;;;;;;;4972134;28;20038;-72
2021/07/28 09:05:06;;;;;;;11.07;9.90;;;;;;;;;;4971643;28;20031;-72
2021/07/28 09:07:41;;;;;;;12.88;9.27;;;;;;;;;;4966822;28;20039;-72
2021/07/28 09:10:11;;;;;;;9.35;8.35;;;;;;;;;;4974999;28;20038;-72
2021/07/28 09:12:37;;;;;;;8.40;7.60;;;;;;;;;;4970693;28;20033;-72
2021/07/28 09:15:05;;;;;;;9.90;7.50;;;;;;;;;;4971851;28;20470;-71
2021/07/28 09:17:35;;;;;;;10.05;7.85;;;;;;;;;;4972875;28;20026;-72
2021/07/28 09:20:01;;;;;;;8.23;7.43;;;;;;;;;;4972230;28;20046;-72
2021/07/28 09:22:40;;;;;;;8.38;7.22;;;;;;;;;;4970800;28;20034;-72
2021/07/28 09:27:51;;;;;;;8.23;6.55;;;;;;;;;;4972630;28;20026;-72
2021/07/28 09:30:33;;;;;;;7.15;6.32;;;;;;;;;;4972877;28;20483;-71
2021/07/28 09:33:05;;;;;;;6.90;5.97;;;;;;;;;;4972437;28;20031;-72
2021/07/28 09:35:50;;;;;;;8.05;6.22;;;;;;;;;;4972844;28;20514;-72
2021/07/28 09:38:48;;;;;;;7.90;6.90;;;;;;;;;;4963524;28;20030;-72
2021/07/28 09:41:26;;;;;;;7.05;6.32;;;;;;;;;;4970086;28;20062;-71
2021/07/28 09:44:03;;;;;;;7.60;6.10;;;;;;;;;;4971196;28;20030;-72
2021/07/28 09:46:32;;;;;;;6.63;6.00;;;;;;;;;;4969615;28;20089;-71
2021/07/28 09:49:00;;;;;;;8.70;6.05;;;;;;;;;;4969204;28;20026;-71
2021/07/28 09:51:27;;;;;;;6.60;5.85;;;;;;;;;;4970247;28;20092;-71
2021/07/28 09:53:57;;;;;;;8.63;6.05;;;;;;;;;;4972715;28;20485;-71
2021/07/28 09:56:30;;;;;;;7.65;5.43;;;;;;;;;;4992202;28;20106;-71
2021/07/28 09:58:58;;;;;;;8.93;6.45;;;;;;;;;;4980310;28;20034;-71
2021/07/28 10:01:26;;;;;;;8.25;6.13;;;;;;;;;;4973742;28;20110;-71
2021/07/28 10:03:53;;;;;;;7.22;6.13;;;;;;;;;;4956313;29;20046;-71
2021/07/28 10:06:22;;;;;;;8.15;6.95;;;;;;;;;;4956163;29;20027;-72
2021/07/28 10:08:51;;;;;;;7.47;5.93;;;;;;;;;;4955870;29;20115;-72
2021/07/28 10:11:18;;;;;;;7.50;6.18;;;;;;;;;;4967586;28;20062;-71
2021/07/28 10:13:44;;;;;;;10.40;6.38;;;;;;;;;;4974990;28;20031;-72
2021/07/28 10:16:10;;;;;;;7.15;6.28;;;;;;;;;;4956154;28;20111;-72
2021/07/28 10:18:37;;;;;;;6.90;6.20;;;;;;;;;;4963856;28;20101;-72
2021/07/28 10:21:04;;;;;;;7.35;6.30;;;;;;;;;;4976427;28;20053;-72
2021/07/28 10:23:30;;;;;;;7.32;6.20;;;;;;;;;;4976207;28;20039;-71
2021/07/28 10:25:57;;;;;;;9.02;6.60;;;;;;;;;;4973357;28;20027;-76
2021/07/28 10:28:23;;;;;;;9.52;6.25;;;;;;;;;;4975141;28;20490;-76
2021/07/28 10:31:12;;;;;;;9.57;6.40;;;;;;;;;;4974414;28;20023;-77
2021/07/28 10:33:45;;;;;;;8.32;6.47;;;;;;;;;;4974671;28;20490;-75
2021/07/28 10:36:10;;;;;;;6.83;6.13;;;;;;;;;;4974240;28;20046;-76
2021/07/28 10:38:53;;;;;;;7.40;6.45;;;;;;;;;;4974790;28;20756;-76
2021/07/28 10:41:38;;;;;;;8.00;5.75;;;;;;;;;;4975105;28;20049;-76
2021/07/28 10:44:11;;;;;;;8.65;6.07;;;;;;;;;;4972008;28;20031;-76
2021/07/28 10:46:55;;;;;;;6.97;5.70;;;;;;;;;;4975134;28;20439;-76
2021/07/28 10:49:44;;;;;;;9.57;6.60;;;;;;;;;;4974973;28;20382;-76
2021/07/28 10:52:39;;;;;;;7.13;6.43;;;;;;;;;;4982587;28;20223;-75
2021/07/28 10:55:05;;;;;;;7.85;6.15;;;;;;;;;;4994243;28;20536;-77
2021/07/28 10:57:33;;;;;;;8.23;5.65;;;;;;;;;;4994168;28;20018;-77
2021/07/28 10:59:59;;;;;;;9.60;5.68;;;;;;;;;;4994340;28;20026;-76
2021/07/28 11:02:57;;;;;;;7.95;6.50;;;;;;;;;;4993754;28;20045;-76
2021/07/28 11:05:24;;;;;;;9.27;6.18;;;;;;;;;;4994153;28;20034;-76
2021/07/28 11:08:02;;;;;;;9.52;6.35;;;;;;;;;;4993972;28;20032;-76
2021/07/28 11:10:28;;;;;;;10.07;6.75;;;;;;;;;;4994046;28;20030;-77
2021/07/28 11:12:54;;;;;;;7.55;6.35;;;;;;;;;;4994179;28;20096;-76
2021/07/28 11:15:20;;;;;;;8.02;6.60;;;;;;;;;;4993979;28;20034;-76
2021/07/28 11:17:51;;;;;;;8.35;6.30;;;;;;;;;;4983707;28;20019;-77
2021/07/28 11:20:30;;;;;;;8.50;5.70;;;;;;;;;;4973310;28;20023;-76
2021/07/28 11:23:21;;;;;;;7.32;6.20;;;;;;;;;;4971823;28;20023;-77
2021/07/28 11:25:57;;;;;;;9.70;5.88;;;;;;;;;;4973228;28;20037;-76
2021/07/28 11:28:23;;;;;;;6.78;5.75;;;;;;;;;;4968187;28;20027;-76
2021/07/28 11:31:04;;;;;;;7.45;5.90;;;;;;;;;;4973717;28;20027;-75
2021/07/28 11:33:32;;;;;;;7.05;5.95;;;;;;;;;;4971793;28;20019;-77
2021/07/28 11:35:59;;;;;;;5.78;4.93;;;;;;;;;;4968742;28;20042;-74
2021/07/28 11:38:26;;;;;;;7.32;5.72;;;;;;;;;;4968221;28;20028;-73
2021/07/28 11:40:57;;;;;;;5.45;4.95;;;;;;;;;;4973451;28;20053;-75
2021/07/28 11:43:30;;;;;;;6.10;5.47;;;;;;;;;;4976008;28;20031;-73
2021/07/28 11:45:59;;;;;;;6.65;5.40;;;;;;;;;;4974885;28;20027;-75
2021/07/28 11:48:44;;;;;;;7.07;5.68;;;;;;;;;;4974783;28;20023;-74
2021/07/28 11:51:32;;;;;;;8.70;5.28;;;;;;;;;;4972096;28;20022;-76
2021/07/28 11:54:15;;;;;;;7.10;5.22;;;;;;;;;;4968825;28;20031;-74
2021/07/28 11:57:07;;;;;;;8.27;4.90;;;;;;;;;;4958763;28;20089;-76
2021/07/28 11:59:34;;;;;;;10.40;5.30;;;;;;;;;;4971953;28;20054;-74
2021/07/28 12:02:02;;;;;;;6.57;5.18;;;;;;;;;;4971680;28;20050;-75
2021/07/28 12:04:29;;;;;;;6.68;5.60;;;;;;;;;;4972251;28;20019;-74
2021/07/28 12:07:00;;;;;;;13.90;5.22;;;;;;;;;;4971329;28;20023;-75
2021/07/28 12:09:28;;;;;;;7.38;3.97;;;;;;;;;;4971918;28;20046;-75
2021/07/28 12:11:59;;;;;;;7.38;5.70;;;;;;;;;;4971591;28;20418;-75
2021/07/28 12:14:41;;;;;;;6.70;5.10;;;;;;;;;;4972099;28;20497;-76
2021/07/28 12:17:27;;;;;;;5.07;4.00;;;;;;;;;;4973359;28;20022;-76
2021/07/28 12:19:55;;;;;;;6.45;4.57;;;;;;;;;;4972349;28;20042;-76
2021/07/28 12:22:35;;;;;;;4.88;4.30;;;;;;;;;;4972531;28;20027;-76
2021/07/28 12:25:22;;;;;;;4.72;4.20;;;;;;;;;;4970626;28;20082;-77
2021/07/28 12:27:57;;;;;;;4.97;4.45;;;;;;;;;;4972017;28;20121;-75
2021/07/28 12:30:29;;;;;;;6.30;4.32;;;;;;;;;;4971911;28;20035;-76
2021/07/28 12:33:04;;;;;;;;;;;;;;;;;;4972965;28;20027;-76
2021/07/28 12:35:40;;;;;;;4.82;3.70;;;;;;;;;;4967800;28;20012;-76
2021/07/28 12:38:23;;;;;;;4.72;4.22;;;;;;;;;;4972306;28;20029;-76
2021/07/28 12:40:51;;;;;;;5.00;3.58;;;;;;;;;;4970235;28;20054;-76
2021/07/28 12:43:17;;;;;;;5.68;3.60;;;;;;;;;;4983238;28;20114;-75
2021/07/28 12:45:43;;;;;;;5.28;3.22;;;;;;;;;;4972165;28;20142;-76
2021/07/28 12:48:09;;;;;;;5.38;3.70;;;;;;;;;;4972204;28;20407;-76
2021/07/28 12:50:37;;;;;;;5.00;3.40;;;;;;;;;;4970738;28;20027;-76
2021/07/28 12:53:04;;;;;;;5.43;3.58;;;;;;;;;;4985853;28;20030;-76
2021/07/28 12:55:30;;;;;;;4.13;3.55;;;;;;;;;;4990336;28;20030;-76
2021/07/28 12:57:56;;;;;;;4.45;3.30;;;;;;;;;;4991120;28;20023;-75
2021/07/28 13:00:21;;;;;;;5.78;3.60;;;;;;;;;;4991296;28;20501;-74
2021/07/28 13:02:47;;;;;;;9.32;3.40;;;;;;;;;;4991296;28;20026;-77
2021/07/28 13:05:30;;;;;;;5.75;3.60;;;;;;;;;;4991396;28;20033;-76
2021/07/28 13:10:21;;;;;;;5.63;3.08;;;;;;;;;;4991742;28;20062;-74
2021/07/28 13:12:47;;;;;;;3.95;3.13;;;;;;;;;;4991202;28;20019;-75
2021/07/28 13:15:12;;;;;;;3.60;3.00;;;;;;;;;;4991440;28;20283;-76
2021/07/28 13:17:38;;;;;;;5.47;3.40;;;;;;;;;;4991443;28;20023;-76
2021/07/28 13:20:04;;;;;;;5.10;3.30;;;;;;;;;;4991156;28;20344;-76
2021/07/28 13:22:29;;;;;;;4.20;3.10;;;;;;;;;;4989994;28;20061;-76
2021/07/28 13:24:55;;;;;;;6.35;3.50;;;;;;;;;;4991138;28;20022;-76
2021/07/28 13:27:20;;;;;;;3.97;3.38;;;;;;;;;;4995268;28;20077;-75
2021/07/28 13:29:46;;;;;;;7.03;3.17;;;;;;;;;;4993792;28;20406;-76
2021/07/28 13:32:11;;;;;;;4.40;3.20;;;;;;;;;;4995314;28;20031;-76
2021/07/28 13:34:36;;;;;;;5.00;3.08;;;;;;;;;;4994959;28;20038;-76
2021/07/28 13:37:02;;;;;;;5.65;3.40;;;;;;;;;;4994963;28;20495;-75
2021/07/28 13:39:27;;;;;;;5.07;3.22;;;;;;;;;;4995117;28;20041;-76
2021/07/28 13:41:53;;;;;;;7.45;3.58;;;;;;;;;;4986326;28;20142;-76
2021/07/28 13:44:18;;;;;;;4.20;3.60;;;;;;;;;;4975693;28;20400;-75
2021/07/28 13:46:44;;;;;;;4.80;3.90;;;;;;;;;;4975494;28;20027;-76
2021/07/28 13:49:09;;;;;;;4.65;3.55;;;;;;;;;;4975505;28;20033;-76
2021/07/28 13:51:35;;;;;;;4.43;3.50;;;;;;;;;;4980469;28;20113;-77
2021/07/28 13:54:01;;;;;;;4.50;3.15;;;;;;;;;;4994685;28;20394;-76
2021/07/28 13:56:26;;;;;;;7.88;3.53;;;;;;;;;;4994900;28;20496;-77
2021/07/28 13:58:51;;;;;;;5.18;3.50;;;;;;;;;;4994583;28;20073;-77
2021/07/28 14:01:17;;;;;;;5.22;3.20;;;;;;;;;;4994674;28;20125;-76
2021/07/28 14:03:42;;;;;;;6.95;3.35;;;;;;;;;;4994788;28;20037;-75
2021/07/28 14:06:08;;;;;;;4.47;3.38;;;;;;;;;;4994606;28;20026;-77
2021/07/28 14:08:33;;;;;;;6.85;3.42;;;;;;;;;;4994621;28;20105;-76
2021/07/28 14:11:07;;;;;;;5.32;3.65;;;;;;;;;;4994415;28;20022;-77
2021/07/28 14:13:33;;;;;;;4.53;3.50;;;;;;;;;;4994540;28;20030;-76
2021/07/28 14:15:59;;;;;;;5.28;4.20;;;;;;;;;;4994342;28;20433;-76
2021/07/28 14:18:25;;;;;;;4.35;3.95;;;;;;;;;;4994425;28;20097;-76
2021/07/28 14:20:50;;;;;;;4.25;3.70;;;;;;;;;;4994263;28;20142;-77
2021/07/28 14:23:16;;;;;;;6.07;3.60;;;;;;;;;;4994377;28;20066;-76
2021/07/28 14:25:41;;;;;;;4.57;4.10;;;;;;;;;;4994363;28;20026;-75
2021/07/28 14:28:07;;;;;;;6.28;4.13;;;;;;;;;;4994090;28;20022;-76
2021/07/28 14:30:32;;;;;;;5.53;3.90;;;;;;;;;;4994160;28;20054;-75
2021/07/28 14:32:58;;;;;;;8.52;4.32;;;;;;;;;;4994319;28;20065;-77
2021/07/28 14:35:23;;;;;;;4.93;4.15;;;;;;;;;;4993959;28;20134;-76
2021/07/28 14:37:49;;;;;;;5.88;4.40;;;;;;;;;;4992957;28;20019;-76